Time;durP1;ratioP1;P1;durP2;ratioP2;P2;SDS_P1;SDS_P2;PMS_P1;PMS_P2;Temp;Humidity;BMP_temperature;BMP_pressure;BME280_temperature;BME280_humidity;BME280_pressure;Samples;Min_cycle;Max_cycle;Signal;HPM_P1;HPM_P2
2023/05/16 00:00:08;;;;;;;3.20;0.90;;;10.60;99.90;;;;;;5137381;27;20076;-69
2023/05/16 00:02:36;;;;;;;0.00;0.00;;;10.60;99.90;;;;;;5137192;27;20558;-69
2023/05/16 00:05:03;;;;;;;0.20;0.20;;;10.70;99.90;;;;;;5137104;27;20050;-70
2023/05/16 00:07:30;;;;;;;0.00;0.00;;;10.80;99.90;;;;;;5137068;27;20107;-71
2023/05/16 00:09:55;;;;;;;0.00;0.00;;;10.80;99.90;;;;;;5131590;27;20103;-69
2023/05/16 00:12:21;;;;;;;0.10;0.10;;;10.90;99.90;;;;;;5127957;27;20427;-69
2023/05/16 00:14:49;;;;;;;0.00;0.00;;;10.90;99.90;;;;;;5136831;27;20022;-69
2023/05/16 00:17:16;;;;;;;3.42;1.38;;;10.90;99.90;;;;;;5137155;27;20023;-69
2023/05/16 00:19:43;;;;;;;2.55;0.57;;;10.80;99.90;;;;;;5136863;27;20086;-69
2023/05/16 00:22:10;;;;;;;0.00;0.00;;;10.80;99.90;;;;;;5137090;27;20041;-72
2023/05/16 00:24:36;;;;;;;0.30;0.30;;;10.70;99.90;;;;;;5137093;27;20417;-69
2023/05/16 00:27:02;;;;;;;0.10;0.10;;;10.80;99.90;;;;;;5107937;27;20064;-71
2023/05/16 00:29:30;;;;;;;0.10;0.10;;;10.80;99.90;;;;;;5136826;27;20023;-74
2023/05/16 00:31:57;;;;;;;1.45;1.10;;;10.80;99.90;;;;;;5118093;27;20015;-73
2023/05/16 00:34:23;;;;;;;1.60;1.48;;;10.80;99.90;;;;;;5111886;28;20061;-73
2023/05/16 00:36:52;;;;;;;0.10;0.10;;;10.60;99.90;;;;;;5098253;27;20041;-75
2023/05/16 00:39:17;;;;;;;0.00;0.00;;;10.70;99.90;;;;;;5136750;27;20471;-74
2023/05/16 00:41:44;;;;;;;0.20;0.20;;;10.80;99.90;;;;;;5112753;27;20024;-70
2023/05/16 00:44:10;;;;;;;0.17;0.17;;;10.60;99.90;;;;;;5098891;28;20035;-75
2023/05/16 00:46:36;;;;;;;1.25;0.52;;;10.50;99.90;;;;;;5111076;27;20387;-73
2023/05/16 00:49:03;;;;;;;0.00;0.00;;;10.50;99.90;;;;;;5136350;27;20065;-75
2023/05/16 00:51:29;;;;;;;0.00;0.00;;;10.60;99.90;;;;;;5136483;27;20546;-73
2023/05/16 00:53:55;;;;;;;0.10;0.10;;;10.50;99.90;;;;;;5136154;27;20030;-75
2023/05/16 00:56:21;;;;;;;0.00;0.00;;;10.50;99.90;;;;;;5136025;27;20019;-73
2023/05/16 00:58:47;;;;;;;0.00;0.00;;;10.50;99.90;;;;;;5136123;27;20027;-75
2023/05/16 01:01:13;;;;;;;0.38;0.38;;;10.50;99.90;;;;;;5136399;27;20467;-73
2023/05/16 01:03:39;;;;;;;0.00;0.00;;;10.30;99.90;;;;;;5135939;27;20061;-75
2023/05/16 01:06:05;;;;;;;0.10;0.10;;;10.20;99.90;;;;;;5117602;27;20061;-74
2023/05/16 01:08:32;;;;;;;1.85;1.02;;;10.20;99.90;;;;;;5135938;27;20049;-75
2023/05/16 01:11:17;;;;;;;0.00;0.00;;;10.10;99.90;;;;;;5103058;28;20035;-74
2023/05/16 01:14:21;;;;;;;0.03;0.03;;;10.10;99.90;;;;;;5112309;27;20066;-74
2023/05/16 01:17:27;;;;;;;0.00;0.00;;;10.30;99.90;;;;;;5135711;27;20026;-74
2023/05/16 01:20:05;;;;;;;0.10;0.10;;;10.30;99.90;;;;;;5135916;27;20019;-75
2023/05/16 01:22:44;;;;;;;0.35;0.35;;;10.20;99.90;;;;;;5135998;27;20027;-75
2023/05/16 01:25:52;;;;;;;0.00;0.00;;;10.10;99.90;;;;;;5135124;27;20030;-75
2023/05/16 01:28:18;;;;;;;0.20;0.20;;;9.90;99.90;;;;;;5096670;27;20039;-75
2023/05/16 01:30:45;;;;;;;1.05;1.00;;;9.90;99.90;;;;;;5117450;27;20431;-74
2023/05/16 01:33:11;;;;;;;0.10;0.10;;;9.90;99.90;;;;;;5116736;27;20390;-75
2023/05/16 01:36:04;;;;;;;0.32;0.20;;;10.00;99.90;;;;;;5135509;27;20019;-73
2023/05/16 01:38:40;;;;;;;0.10;0.10;;;9.90;99.90;;;;;;5134797;27;20035;-75
2023/05/16 01:41:20;;;;;;;0.57;0.20;;;9.90;99.90;;;;;;5135041;27;20087;-74
2023/05/16 01:43:51;;;;;;;0.20;0.20;;;9.80;99.90;;;;;;5135392;27;20429;-75
2023/05/16 01:46:26;;;;;;;0.10;0.10;;;9.80;99.90;;;;;;5116138;27;20027;-75
2023/05/16 01:49:06;;;;;;;0.10;0.10;;;9.80;99.90;;;;;;5116788;27;20023;-75
2023/05/16 01:51:34;;;;;;;0.10;0.10;;;9.80;99.90;;;;;;5135222;27;20027;-74
2023/05/16 01:54:06;;;;;;;0.10;0.10;;;9.80;99.90;;;;;;5134584;27;20076;-76
2023/05/16 01:56:33;;;;;;;0.00;0.00;;;9.90;99.90;;;;;;5116550;27;20506;-75
2023/05/16 01:59:01;;;;;;;0.95;0.22;;;9.80;99.90;;;;;;5116814;27;20045;-74
2023/05/16 02:01:28;;;;;;;0.00;0.00;;;9.80;99.90;;;;;;5116708;27;20038;-75
2023/05/16 02:03:54;;;;;;;0.10;0.10;;;9.90;99.90;;;;;;5099441;27;20049;-75
2023/05/16 02:06:21;;;;;;;0.10;0.10;;;9.80;99.90;;;;;;5134989;27;20098;-75
2023/05/16 02:08:47;;;;;;;0.00;0.00;;;9.80;99.90;;;;;;5119028;27;20156;-75
2023/05/16 02:11:16;;;;;;;0.10;0.10;;;9.70;99.90;;;;;;5114596;28;20026;-69
2023/05/16 02:13:43;;;;;;;0.10;0.10;;;9.70;99.90;;;;;;5101718;27;20049;-69
2023/05/16 02:16:12;;;;;;;0.10;0.10;;;9.60;99.90;;;;;;5114940;27;20039;-69
2023/05/16 02:18:38;;;;;;;0.08;0.08;;;9.60;99.90;;;;;;5122195;27;20027;-68
2023/05/16 02:21:04;;;;;;;0.10;0.10;;;9.50;99.90;;;;;;5116261;27;20031;-68
2023/05/16 02:23:29;;;;;;;0.25;0.17;;;9.50;99.90;;;;;;5134042;27;20033;-69
2023/05/16 02:25:55;;;;;;;0.20;0.20;;;9.70;99.90;;;;;;5104450;28;20027;-70
2023/05/16 02:28:21;;;;;;;0.10;0.10;;;9.60;99.90;;;;;;5113499;27;20126;-69
2023/05/16 02:30:58;;;;;;;0.10;0.10;;;9.50;99.90;;;;;;5134541;27;20483;-69
2023/05/16 02:33:28;;;;;;;0.80;0.63;;;9.50;99.90;;;;;;5115783;27;20102;-69
2023/05/16 02:35:54;;;;;;;0.10;0.10;;;9.40;99.90;;;;;;5116083;27;20031;-71
2023/05/16 02:38:20;;;;;;;0.10;0.10;;;9.30;99.90;;;;;;5133968;27;20022;-75
2023/05/16 02:40:47;;;;;;;0.10;0.10;;;9.30;99.90;;;;;;5134276;27;20034;-75
2023/05/16 02:43:13;;;;;;;0.10;0.10;;;9.30;99.90;;;;;;5120429;27;20523;-75
2023/05/16 02:45:39;;;;;;;0.00;0.00;;;9.30;99.90;;;;;;5114890;27;20128;-75
2023/05/16 02:48:05;;;;;;;3.58;0.60;;;9.40;99.90;;;;;;5134289;27;20058;-75
2023/05/16 02:50:32;;;;;;;0.08;0.08;;;9.30;99.90;;;;;;5133967;27;20019;-75
2023/05/16 02:52:58;;;;;;;0.20;0.20;;;9.20;99.90;;;;;;5115663;27;20032;-75
2023/05/16 02:55:25;;;;;;;0.35;0.35;;;9.20;99.90;;;;;;5115377;27;20027;-75
2023/05/16 02:57:51;;;;;;;5.88;1.77;;;9.20;99.90;;;;;;5133211;27;20527;-75
2023/05/16 03:00:17;;;;;;;0.10;0.10;;;9.30;99.90;;;;;;5115503;27;20048;-75
2023/05/16 03:02:44;;;;;;;0.10;0.10;;;9.30;99.90;;;;;;5115639;27;20030;-74
2023/05/16 03:05:10;;;;;;;0.77;0.63;;;9.20;99.90;;;;;;5133883;27;20106;-75
2023/05/16 03:07:37;;;;;;;0.30;0.30;;;9.10;99.90;;;;;;5115186;27;20048;-75
2023/05/16 03:10:05;;;;;;;1.65;1.10;;;9.20;99.90;;;;;;5133606;27;20544;-74
2023/05/16 03:12:31;;;;;;;0.00;0.00;;;9.20;99.90;;;;;;5115395;28;20028;-74
2023/05/16 03:14:57;;;;;;;1.63;1.55;;;9.20;99.90;;;;;;5133706;27;20083;-75
2023/05/16 03:17:22;;;;;;;0.08;0.08;;;9.20;99.90;;;;;;5119841;28;20472;-75
2023/05/16 03:19:48;;;;;;;0.10;0.10;;;9.10;99.90;;;;;;5114975;28;20434;-75
2023/05/16 03:22:14;;;;;;;0.08;0.08;;;9.20;99.90;;;;;;5114877;28;20019;-73
2023/05/16 03:24:42;;;;;;;0.30;0.30;;;9.20;99.90;;;;;;5133544;28;20057;-73
2023/05/16 03:27:10;;;;;;;0.00;0.00;;;9.10;99.90;;;;;;5115176;28;20088;-75
2023/05/16 03:29:36;;;;;;;0.10;0.10;;;9.10;99.90;;;;;;5133666;28;20039;-75
2023/05/16 03:32:02;;;;;;;0.10;0.10;;;9.10;99.90;;;;;;5133895;28;20019;-75
2023/05/16 03:34:28;;;;;;;0.10;0.10;;;9.10;99.90;;;;;;5133290;28;20027;-75
2023/05/16 03:36:54;;;;;;;0.10;0.10;;;9.20;99.90;;;;;;5133376;28;20030;-75
2023/05/16 03:39:20;;;;;;;0.00;0.00;;;9.20;99.90;;;;;;5133662;28;20022;-75
2023/05/16 03:41:46;;;;;;;0.10;0.10;;;9.10;99.90;;;;;;5133193;28;20026;-75
2023/05/16 03:44:11;;;;;;;0.10;0.10;;;9.10;99.90;;;;;;5133529;28;20394;-73
2023/05/16 03:46:37;;;;;;;0.10;0.10;;;9.10;99.90;;;;;;5133253;28;20015;-75
2023/05/16 03:49:03;;;;;;;3.72;0.75;;;9.10;99.90;;;;;;5133742;28;20371;-75
2023/05/16 03:51:29;;;;;;;0.10;0.10;;;9.10;99.90;;;;;;5132994;28;20035;-74
2023/05/16 03:53:55;;;;;;;0.47;0.47;;;9.00;99.90;;;;;;5133326;28;20309;-75
2023/05/16 03:56:21;;;;;;;0.00;0.00;;;9.00;99.90;;;;;;5132889;28;20065;-75
2023/05/16 03:58:47;;;;;;;0.10;0.10;;;9.00;99.90;;;;;;5133187;28;20036;-73
2023/05/16 04:01:13;;;;;;;1.08;0.20;;;9.00;99.90;;;;;;5133278;28;20503;-75
2023/05/16 04:03:39;;;;;;;0.17;0.17;;;9.00;99.90;;;;;;5133303;28;20027;-75
2023/05/16 04:06:06;;;;;;;0.47;0.38;;;9.00;99.90;;;;;;5132882;28;20076;-75
2023/05/16 04:08:32;;;;;;;0.15;0.15;;;9.10;99.90;;;;;;5133288;28;20033;-74
2023/05/16 04:10:57;;;;;;;0.22;0.22;;;9.00;99.90;;;;;;5136763;27;20105;-75
2023/05/16 04:13:24;;;;;;;0.43;0.32;;;9.00;99.90;;;;;;5136959;27;20115;-75
2023/05/16 04:15:50;;;;;;;0.00;0.00;;;9.00;99.90;;;;;;5136125;27;20023;-74
2023/05/16 04:18:15;;;;;;;0.00;0.00;;;9.00;99.90;;;;;;5123514;27;20031;-74
2023/05/16 04:20:42;;;;;;;0.20;0.20;;;9.00;99.90;;;;;;5137313;27;20075;-75
2023/05/16 04:23:10;;;;;;;0.10;0.10;;;9.00;99.90;;;;;;5136886;27;20040;-75
2023/05/16 04:25:36;;;;;;;0.10;0.10;;;9.00;99.90;;;;;;5136771;27;20050;-75
2023/05/16 04:28:02;;;;;;;0.10;0.10;;;9.00;99.90;;;;;;5136768;27;20020;-75
2023/05/16 04:30:28;;;;;;;0.32;0.32;;;9.00;99.90;;;;;;5137061;27;20161;-75
2023/05/16 04:32:54;;;;;;;0.10;0.10;;;8.90;99.90;;;;;;5117960;27;20464;-70
2023/05/16 04:35:21;;;;;;;0.10;0.10;;;9.00;99.90;;;;;;5136763;27;20463;-70
2023/05/16 04:37:46;;;;;;;0.10;0.10;;;9.10;99.90;;;;;;5118302;27;20027;-70
2023/05/16 04:40:13;;;;;;;0.15;0.15;;;9.20;99.90;;;;;;5136296;27;20030;-70
2023/05/16 04:42:39;;;;;;;0.00;0.00;;;9.20;99.90;;;;;;5136555;27;20043;-69
2023/05/16 04:45:09;;;;;;;3.15;1.67;;;9.20;99.90;;;;;;5136427;27;20034;-70
2023/05/16 04:47:35;;;;;;;0.57;0.57;;;9.20;99.90;;;;;;5135848;27;20027;-70
2023/05/16 04:50:01;;;;;;;0.00;0.00;;;9.30;99.90;;;;;;5136534;27;20031;-73
2023/05/16 04:52:27;;;;;;;0.40;0.40;;;9.40;99.90;;;;;;5136279;27;20110;-73
2023/05/16 04:54:53;;;;;;;0.82;0.82;;;9.30;99.90;;;;;;5136406;27;20081;-70
2023/05/16 04:57:19;;;;;;;2.35;0.80;;;9.40;99.90;;;;;;5136308;27;20035;-69
2023/05/16 04:59:44;;;;;;;1.45;1.10;;;9.40;99.90;;;;;;5136333;27;20117;-70
2023/05/16 05:02:10;;;;;;;1.35;0.73;;;9.50;99.90;;;;;;5117361;27;20019;-69
2023/05/16 05:04:36;;;;;;;0.30;0.30;;;9.50;99.90;;;;;;5117750;27;20035;-69
2023/05/16 05:07:02;;;;;;;0.00;0.00;;;9.60;99.90;;;;;;5136167;27;20030;-69
2023/05/16 05:09:28;;;;;;;0.05;0.05;;;9.70;99.90;;;;;;5135923;27;20039;-69
2023/05/16 05:11:54;;;;;;;2.53;1.30;;;9.70;99.90;;;;;;5136210;27;20168;-69
2023/05/16 05:14:20;;;;;;;3.63;1.20;;;9.80;99.90;;;;;;5135996;27;20059;-68
2023/05/16 05:16:45;;;;;;;8.50;1.88;;;10.00;99.90;;;;;;5127153;27;20396;-69
2023/05/16 05:19:11;;;;;;;0.00;0.00;;;10.00;99.90;;;;;;5111624;27;20027;-71
2023/05/16 05:21:37;;;;;;;0.10;0.10;;;10.00;99.90;;;;;;5134783;27;20035;-69
2023/05/16 05:24:03;;;;;;;0.10;0.10;;;10.00;99.90;;;;;;5135593;27;20035;-69
2023/05/16 05:26:29;;;;;;;1.35;0.95;;;9.90;99.90;;;;;;5135596;27;20136;-69
2023/05/16 05:28:55;;;;;;;0.80;0.75;;;10.00;99.90;;;;;;5135687;27;20027;-69
2023/05/16 05:31:20;;;;;;;1.90;0.80;;;9.90;99.90;;;;;;5135348;27;20065;-70
2023/05/16 05:33:46;;;;;;;0.55;0.55;;;10.00;99.90;;;;;;5135818;27;20054;-69
2023/05/16 05:36:12;;;;;;;0.40;0.40;;;10.00;99.90;;;;;;5135316;27;20035;-69
2023/05/16 05:38:38;;;;;;;0.10;0.10;;;10.10;99.90;;;;;;5135291;27;20026;-69
2023/05/16 05:41:05;;;;;;;0.95;0.40;;;10.10;99.90;;;;;;5117244;27;20542;-69
2023/05/16 05:43:31;;;;;;;0.22;0.22;;;10.20;99.90;;;;;;5116772;27;20019;-69
2023/05/16 05:45:57;;;;;;;0.10;0.10;;;10.20;99.90;;;;;;5135146;27;20042;-69
2023/05/16 05:48:23;;;;;;;0.10;0.10;;;10.20;99.90;;;;;;5134930;27;20031;-71
2023/05/16 05:50:49;;;;;;;4.72;1.00;;;10.30;99.90;;;;;;5117093;27;20031;-70
2023/05/16 05:53:15;;;;;;;0.10;0.10;;;10.30;99.90;;;;;;5135158;27;20023;-70
2023/05/16 05:55:41;;;;;;;1.42;0.82;;;10.50;99.90;;;;;;5135029;27;20022;-70
2023/05/16 05:58:07;;;;;;;0.10;0.10;;;10.50;99.90;;;;;;5135118;27;20031;-70
2023/05/16 06:00:32;;;;;;;0.65;0.20;;;10.40;99.90;;;;;;5134552;27;20021;-69
2023/05/16 06:02:58;;;;;;;0.00;0.00;;;10.40;99.90;;;;;;5135198;27;20689;-69
2023/05/16 06:05:24;;;;;;;0.00;0.00;;;10.50;99.90;;;;;;5134567;27;20559;-69
2023/05/16 06:07:50;;;;;;;0.10;0.10;;;10.80;99.90;;;;;;5099299;27;20039;-70
2023/05/16 06:10:15;;;;;;;4.50;1.50;;;10.70;99.90;;;;;;5134676;27;20027;-70
2023/05/16 06:12:41;;;;;;;8.75;1.08;;;10.50;99.90;;;;;;5134832;27;20104;-69
2023/05/16 06:15:08;;;;;;;6.93;0.38;;;10.50;99.90;;;;;;5134442;27;20025;-70
2023/05/16 06:17:34;;;;;;;0.10;0.10;;;10.40;99.90;;;;;;5119860;27;20076;-71
2023/05/16 06:20:00;;;;;;;0.10;0.10;;;10.40;99.90;;;;;;5134695;27;20020;-69
2023/05/16 06:22:26;;;;;;;4.97;0.75;;;10.50;99.90;;;;;;5134552;27;20041;-70
2023/05/16 06:24:52;;;;;;;0.00;0.00;;;10.60;99.90;;;;;;5115820;27;20043;-70
2023/05/16 06:27:17;;;;;;;0.10;0.10;;;10.70;99.90;;;;;;5134698;27;20015;-69
2023/05/16 06:29:43;;;;;;;0.10;0.10;;;10.90;99.90;;;;;;5133942;27;20023;-70
2023/05/16 06:32:09;;;;;;;4.80;1.35;;;11.00;99.90;;;;;;5134512;27;20027;-69
2023/05/16 06:34:35;;;;;;;8.55;1.08;;;10.80;99.90;;;;;;5134190;27;20102;-70
2023/05/16 06:37:02;;;;;;;3.08;1.45;;;10.70;99.90;;;;;;5134403;27;20198;-73
2023/05/16 06:39:28;;;;;;;0.47;0.47;;;10.40;99.90;;;;;;5134265;27;20121;-69
2023/05/16 06:41:54;;;;;;;0.10;0.10;;;10.40;99.90;;;;;;5115536;27;20507;-69
2023/05/16 06:44:22;;;;;;;1.65;0.45;;;10.50;99.90;;;;;;5115364;28;20440;-71
2023/05/16 06:46:47;;;;;;;2.30;0.75;;;10.50;99.90;;;;;;5133868;27;20023;-69
2023/05/16 06:49:13;;;;;;;2.65;1.45;;;10.50;99.90;;;;;;5134235;27;20023;-70
2023/05/16 06:51:39;;;;;;;0.38;0.25;;;10.60;99.90;;;;;;5133975;27;20020;-70
2023/05/16 06:54:05;;;;;;;0.10;0.10;;;10.60;99.90;;;;;;5134097;27;20053;-69
2023/05/16 06:56:31;;;;;;;0.10;0.10;;;10.60;99.90;;;;;;5134128;27;20015;-70
2023/05/16 06:58:57;;;;;;;0.43;0.43;;;10.90;99.90;;;;;;5133686;27;20114;-70
2023/05/16 07:01:23;;;;;;;0.05;0.05;;;11.10;99.90;;;;;;5115448;27;20047;-70
2023/05/16 07:03:49;;;;;;;0.10;0.10;;;11.40;99.90;;;;;;5133512;27;20432;-72
2023/05/16 07:06:15;;;;;;;0.10;0.10;;;11.60;99.90;;;;;;5133862;27;20102;-73
2023/05/16 07:08:40;;;;;;;0.10;0.10;;;11.60;99.90;;;;;;5115424;27;20478;-71
2023/05/16 07:11:06;;;;;;;0.00;0.00;;;11.50;99.90;;;;;;5133814;27;20383;-73
2023/05/16 07:13:32;;;;;;;0.00;0.00;;;11.50;99.90;;;;;;5133574;27;20027;-73
2023/05/16 07:15:57;;;;;;;0.98;0.45;;;11.70;99.90;;;;;;5131480;27;20015;-73
2023/05/16 07:18:23;;;;;;;0.10;0.10;;;11.80;99.90;;;;;;5121463;27;20058;-75
2023/05/16 07:20:49;;;;;;;0.52;0.35;;;12.00;99.90;;;;;;5133678;28;20083;-75
2023/05/16 07:23:15;;;;;;;0.03;0.03;;;12.00;99.90;;;;;;5133956;28;20011;-72
2023/05/16 07:25:41;;;;;;;0.20;0.20;;;12.30;99.90;;;;;;5133449;28;20083;-72
2023/05/16 07:28:07;;;;;;;0.08;0.08;;;12.30;99.90;;;;;;5133426;28;20012;-73
2023/05/16 07:30:33;;;;;;;5.00;0.75;;;12.30;99.90;;;;;;5133538;28;20023;-74
2023/05/16 07:32:59;;;;;;;1.17;0.30;;;12.00;99.90;;;;;;5133589;28;20042;-75
2023/05/16 07:35:25;;;;;;;0.45;0.45;;;11.70;99.90;;;;;;5115249;28;20023;-74
2023/05/16 07:37:51;;;;;;;0.10;0.10;;;11.40;99.90;;;;;;5133706;28;20075;-72
2023/05/16 07:40:17;;;;;;;0.00;0.00;;;11.60;99.90;;;;;;5133720;28;20027;-75
2023/05/16 07:42:43;;;;;;;0.10;0.10;;;11.60;99.90;;;;;;5114820;28;20046;-75
2023/05/16 07:45:09;;;;;;;17.83;0.88;;;11.70;99.90;;;;;;5135534;27;20046;-75
2023/05/16 07:47:35;;;;;;;0.10;0.10;;;11.60;99.90;;;;;;5137568;27;20027;-73
2023/05/16 07:50:00;;;;;;;0.10;0.10;;;11.60;99.90;;;;;;5137927;27;20088;-69
2023/05/16 07:52:26;;;;;;;0.00;0.00;;;11.60;99.90;;;;;;5119281;27;20019;-70
2023/05/16 07:54:52;;;;;;;0.10;0.10;;;11.90;99.90;;;;;;5137229;27;20391;-70
2023/05/16 07:57:18;;;;;;;0.65;0.40;;;11.90;99.90;;;;;;5137203;27;20012;-70
2023/05/16 07:59:44;;;;;;;0.52;0.52;;;12.00;99.90;;;;;;5137527;27;20506;-69
2023/05/16 08:02:10;;;;;;;0.88;0.20;;;12.00;99.90;;;;;;5137085;27;20029;-69
2023/05/16 08:04:36;;;;;;;2.10;1.13;;;12.20;99.90;;;;;;5137341;27;20035;-69
2023/05/16 08:07:02;;;;;;;0.10;0.10;;;12.40;99.90;;;;;;5137124;27;20455;-69
2023/05/16 08:09:28;;;;;;;0.10;0.10;;;12.80;99.90;;;;;;5137203;27;20076;-69
2023/05/16 08:11:53;;;;;;;2.92;0.57;;;12.40;99.90;;;;;;5137326;27;20023;-69
2023/05/16 08:14:20;;;;;;;4.05;0.63;;;12.10;99.90;;;;;;5137261;27;20032;-69
2023/05/16 08:16:46;;;;;;;0.00;0.00;;;12.20;99.90;;;;;;5128434;27;20028;-70
2023/05/16 08:19:11;;;;;;;0.32;0.32;;;12.30;99.90;;;;;;5131390;27;20025;-70
2023/05/16 08:21:37;;;;;;;1.40;0.15;;;12.10;99.90;;;;;;5136993;27;20491;-69
2023/05/16 08:24:04;;;;;;;0.20;0.20;;;12.20;99.90;;;;;;5136743;27;20031;-69
2023/05/16 08:26:31;;;;;;;1.88;0.63;;;12.20;99.90;;;;;;5136483;27;20031;-69
2023/05/16 08:28:56;;;;;;;0.10;0.10;;;12.60;99.90;;;;;;5137058;27;20038;-69
2023/05/16 08:31:22;;;;;;;0.00;0.00;;;12.90;99.90;;;;;;5136688;27;20035;-71
2023/05/16 08:33:48;;;;;;;0.00;0.00;;;13.30;99.90;;;;;;5136765;27;20016;-70
2023/05/16 08:36:14;;;;;;;0.45;0.10;;;13.30;99.90;;;;;;5136652;27;20467;-70
2023/05/16 08:38:40;;;;;;;3.30;0.70;;;13.70;99.90;;;;;;5136723;27;20023;-70
2023/05/16 08:41:06;;;;;;;0.57;0.57;;;13.90;99.90;;;;;;5136322;27;20083;-70
2023/05/16 08:43:34;;;;;;;0.75;0.75;;;13.60;99.90;;;;;;5118199;27;20035;-70
2023/05/16 08:45:59;;;;;;;0.20;0.20;;;13.70;99.90;;;;;;5136420;27;20092;-75
2023/05/16 08:48:27;;;;;;;0.45;0.45;;;13.70;99.90;;;;;;5136294;27;20031;-74
2023/05/16 08:50:53;;;;;;;0.10;0.10;;;13.60;99.90;;;;;;5136570;27;20023;-74
2023/05/16 08:53:24;;;;;;;6.32;0.82;;;13.40;99.90;;;;;;5136266;27;20023;-71
2023/05/16 08:55:51;;;;;;;0.47;0.47;;;13.20;99.90;;;;;;5134863;27;20031;-73
2023/05/16 08:58:18;;;;;;;0.17;0.17;;;13.30;99.90;;;;;;5136014;27;20038;-71
2023/05/16 09:00:44;;;;;;;0.00;0.00;;;13.40;99.90;;;;;;5136292;27;20057;-71
2023/05/16 09:03:10;;;;;;;0.35;0.35;;;13.90;99.90;;;;;;5117813;27;20076;-71
2023/05/16 09:05:37;;;;;;;0.20;0.20;;;14.30;99.90;;;;;;5136030;27;20079;-75
2023/05/16 09:08:03;;;;;;;0.43;0.35;;;14.50;99.90;;;;;;5136095;27;20513;-74
2023/05/16 09:10:28;;;;;;;0.00;0.00;;;14.40;99.90;;;;;;5135653;27;20035;-74
2023/05/16 09:12:54;;;;;;;0.00;0.00;;;14.50;99.90;;;;;;5135981;27;20132;-69
2023/05/16 09:15:20;;;;;;;0.00;0.00;;;14.80;99.90;;;;;;5135751;27;20066;-73
2023/05/16 09:17:46;;;;;;;7.10;2.58;;;15.30;99.90;;;;;;5121343;27;20020;-73
2023/05/16 09:20:17;;;;;;;0.00;0.00;;;15.10;99.90;;;;;;5135762;27;20027;-70
2023/05/16 09:22:51;;;;;;;0.00;0.00;;;14.50;99.90;;;;;;5135679;27;20482;-72
2023/05/16 09:25:17;;;;;;;0.90;0.22;;;15.00;99.90;;;;;;5135386;27;20510;-73
2023/05/16 09:27:47;;;;;;;0.10;0.10;;;14.90;99.90;;;;;;5135582;27;20467;-74
2023/05/16 09:30:15;;;;;;;0.10;0.10;;;14.90;99.90;;;;;;5135782;27;20034;-73
2023/05/16 09:32:44;;;;;;;0.00;0.00;;;14.70;99.90;;;;;;5135926;27;20019;-74
2023/05/16 09:35:18;;;;;;;1.55;0.20;;;15.20;99.90;;;;;;5135434;27;20023;-75
2023/05/16 09:37:48;;;;;;;0.00;0.00;;;15.40;99.90;;;;;;5135337;27;20038;-74
2023/05/16 09:40:15;;;;;;;0.35;0.15;;;14.70;99.90;;;;;;5135465;27;20459;-72
2023/05/16 09:42:45;;;;;;;0.00;0.00;;;14.80;99.90;;;;;;5117043;27;20038;-74
2023/05/16 09:45:12;;;;;;;0.10;0.10;;;15.40;99.90;;;;;;5134943;27;20100;-71
2023/05/16 09:47:45;;;;;;;6.75;0.90;;;15.50;99.90;;;;;;5135512;27;20038;-74
2023/05/16 09:50:14;;;;;;;0.90;0.55;;;15.10;99.90;;;;;;5135173;27;20387;-75
2023/05/16 09:52:40;;;;;;;0.10;0.10;;;15.00;99.90;;;;;;5134933;27;20019;-75
2023/05/16 09:55:07;;;;;;;0.00;0.00;;;14.40;99.90;;;;;;5134911;27;20034;-72
2023/05/16 09:57:37;;;;;;;0.00;0.00;;;14.00;99.90;;;;;;5135047;27;20027;-74
2023/05/16 10:00:09;;;;;;;0.73;0.35;;;14.70;99.90;;;;;;5116800;27;20042;-73
2023/05/16 10:02:36;;;;;;;;;;;15.00;99.90;;;;;;5135505;27;20088;-73
2023/05/16 10:05:02;;;;;;;0.17;0.13;;;15.30;99.90;;;;;;5134788;27;20371;-72
2023/05/16 10:07:31;;;;;;;0.10;0.10;;;15.80;99.90;;;;;;5115504;27;20016;-74
2023/05/16 10:09:59;;;;;;;2.10;0.52;;;15.90;99.90;;;;;;5134672;27;20066;-73
2023/05/16 10:12:30;;;;;;;1.13;0.15;;;15.20;99.40;;;;;;5134721;27;20383;-74
2023/05/16 10:14:56;;;;;;;0.03;0.03;;;15.50;99.90;;;;;;5134821;27;20032;-74
2023/05/16 10:17:24;;;;;;;0.68;0.20;;;15.50;99.80;;;;;;5120806;27;20051;-75
2023/05/16 10:19:51;;;;;;;0.05;0.05;;;15.90;99.20;;;;;;5134305;27;20028;-74
2023/05/16 10:22:18;;;;;;;0.57;0.35;;;15.90;99.40;;;;;;5134286;27;20019;-74
2023/05/16 10:24:57;;;;;;;0.00;0.00;;;15.60;98.60;;;;;;5134275;27;20544;-74
2023/05/16 10:27:24;;;;;;;0.38;0.38;;;15.80;99.00;;;;;;5134607;27;20438;-74
2023/05/16 10:29:51;;;;;;;0.90;0.30;;;16.10;99.20;;;;;;5134267;27;20023;-73
2023/05/16 10:32:18;;;;;;;0.00;0.00;;;16.40;99.50;;;;;;5116049;27;20019;-74
2023/05/16 10:34:45;;;;;;;0.35;0.30;;;16.20;98.90;;;;;;5134090;27;20034;-74
2023/05/16 10:37:11;;;;;;;0.57;0.20;;;16.40;98.80;;;;;;5134323;27;20038;-75
2023/05/16 10:39:38;;;;;;;2.50;0.70;;;16.60;99.30;;;;;;5134100;27;20019;-74
2023/05/16 10:42:05;;;;;;;0.00;0.00;;;16.10;97.20;;;;;;5134391;27;20105;-72
2023/05/16 10:44:33;;;;;;;0.00;0.00;;;16.50;98.80;;;;;;5133790;27;20055;-72
2023/05/16 10:46:59;;;;;;;0.32;0.32;;;16.90;97.80;;;;;;5134227;27;20035;-74
2023/05/16 10:49:26;;;;;;;0.00;0.00;;;16.70;96.40;;;;;;5134430;27;20030;-74
2023/05/16 10:52:12;;;;;;;1.05;0.50;;;16.40;97.20;;;;;;5133771;27;20050;-74
2023/05/16 10:54:38;;;;;;;0.00;0.00;;;16.60;97.40;;;;;;5133864;27;20491;-74
2023/05/16 10:57:24;;;;;;;3.10;0.88;;;16.90;97.70;;;;;;5115458;27;20072;-74
2023/05/16 10:59:51;;;;;;;0.00;0.00;;;16.60;96.50;;;;;;5133708;27;20406;-73
2023/05/16 11:02:24;;;;;;;0.52;0.20;;;16.90;97.30;;;;;;5134035;27;20049;-74
2023/05/16 11:04:56;;;;;;;0.00;0.00;;;17.30;96.10;;;;;;5133426;27;20478;-73
2023/05/16 11:07:23;;;;;;;0.70;0.32;;;17.30;96.20;;;;;;5115615;27;20037;-73
2023/05/16 11:10:09;;;;;;;0.22;0.22;;;17.10;95.30;;;;;;5133804;27;20476;-75
2023/05/16 11:12:47;;;;;;;0.00;0.00;;;17.20;96.20;;;;;;5133630;27;20395;-75
2023/05/16 11:15:22;;;;;;;1.45;0.98;;;17.40;95.00;;;;;;5133656;27;20041;-74
2023/05/16 11:17:48;;;;;;;0.00;0.00;;;17.30;95.20;;;;;;5113514;28;20392;-70
2023/05/16 11:20:30;;;;;;;0.00;0.00;;;17.30;95.90;;;;;;5132963;27;20053;-70
2023/05/16 11:23:17;;;;;;;4.30;1.15;;;17.40;95.40;;;;;;5133661;28;20019;-69
2023/05/16 11:25:45;;;;;;;0.63;0.40;;;17.60;94.50;;;;;;5133628;28;20494;-69
2023/05/16 11:28:15;;;;;;;0.05;0.05;;;17.40;95.10;;;;;;5133764;28;20023;-70
2023/05/16 11:30:50;;;;;;;1.25;0.55;;;17.90;95.10;;;;;;5133478;28;20030;-70
2023/05/16 11:33:16;;;;;;;0.10;0.10;;;18.30;95.10;;;;;;5098071;28;20024;-69
2023/05/16 11:35:43;;;;;;;0.00;0.00;;;18.30;93.20;;;;;;5133370;28;20019;-69
2023/05/16 11:38:15;;;;;;;2.40;0.63;;;18.80;94.20;;;;;;5115234;28;20062;-70
2023/05/16 11:40:44;;;;;;;0.00;0.00;;;18.80;93.10;;;;;;5133254;28;20030;-70
2023/05/16 11:43:11;;;;;;;0.25;0.20;;;18.90;91.30;;;;;;5133416;28;20531;-69
2023/05/16 11:45:36;;;;;;;0.13;0.13;;;18.90;92.90;;;;;;5133334;28;20035;-70
2023/05/16 11:48:03;;;;;;;0.00;0.00;;;18.90;92.40;;;;;;5133370;28;20399;-72
2023/05/16 11:50:29;;;;;;;0.00;0.00;;;19.20;93.20;;;;;;5133648;28;20031;-70
2023/05/16 11:52:56;;;;;;;0.00;0.00;;;19.40;92.80;;;;;;5115060;28;20027;-69
2023/05/16 11:55:28;;;;;;;37.25;1.00;;;18.70;92.70;;;;;;5133132;28;20019;-68
2023/05/16 11:57:56;;;;;;;6.32;0.63;;;17.90;93.50;;;;;;5133318;28;20102;-69
2023/05/16 12:00:25;;;;;;;0.22;0.17;;;18.00;94.10;;;;;;5115032;28;20356;-73
2023/05/16 12:02:52;;;;;;;0.65;0.20;;;17.60;94.20;;;;;;5133032;28;20506;-74
2023/05/16 12:05:20;;;;;;;0.00;0.00;;;18.30;94.00;;;;;;5133269;28;20078;-73
2023/05/16 12:07:47;;;;;;;0.30;0.30;;;18.40;93.50;;;;;;5133256;28;20536;-69
2023/05/16 12:10:14;;;;;;;0.00;0.00;;;19.20;93.60;;;;;;5133214;28;20030;-69
2023/05/16 12:12:41;;;;;;;1.23;0.63;;;19.50;93.30;;;;;;5133232;28;20498;-73
2023/05/16 12:15:08;;;;;;;1.02;0.40;;;18.30;91.50;;;;;;5133250;28;20015;-69
2023/05/16 12:17:35;;;;;;;0.10;0.10;;;18.40;92.80;;;;;;5118174;28;20490;-71
2023/05/16 12:20:04;;;;;;;0.50;0.15;;;18.80;93.30;;;;;;5133523;28;20023;-72
2023/05/16 12:22:31;;;;;;;0.00;0.00;;;18.80;92.20;;;;;;5133505;28;20434;-71
2023/05/16 12:25:17;;;;;;;1.35;0.52;;;18.90;93.50;;;;;;5114459;28;20425;-74
2023/05/16 12:27:43;;;;;;;0.10;0.10;;;19.10;91.40;;;;;;5132880;28;20475;-73
2023/05/16 12:30:09;;;;;;;0.45;0.32;;;19.60;91.20;;;;;;5115388;27;20106;-73
2023/05/16 12:32:38;;;;;;;0.50;0.50;;;20.20;90.90;;;;;;5136444;27;20061;-71
2023/05/16 12:35:04;;;;;;;0.68;0.68;;;20.50;91.70;;;;;;5136613;27;20108;-74
2023/05/16 12:37:30;;;;;;;0.03;0.03;;;20.50;90.50;;;;;;5136597;27;20152;-73
2023/05/16 12:39:59;;;;;;;0.57;0.20;;;20.00;90.90;;;;;;5136394;27;20094;-73
2023/05/16 12:42:29;;;;;;;0.65;0.45;;;19.60;91.00;;;;;;5136580;27;20054;-74
2023/05/16 12:44:55;;;;;;;0.22;0.22;;;19.50;92.00;;;;;;5136263;27;20039;-74
2023/05/16 12:47:22;;;;;;;0.00;0.00;;;18.70;92.10;;;;;;5136058;27;20023;-74
2023/05/16 12:49:50;;;;;;;0.65;0.60;;;19.20;92.60;;;;;;5136367;27;20038;-72
2023/05/16 12:52:18;;;;;;;0.10;0.10;;;19.80;92.20;;;;;;5136492;27;20027;-74